sensor_id;sensor_type;location;lat;lon;timestamp;P1;durP1;ratioP1;P2;durP2;ratioP2
51491;SDS011;37569;50.548;8.778;2023-04-05T00:04:46;5.9;;;3.9;;
51491;SDS011;37569;50.548;8.778;2023-04-05T00:09:47;5.5;;;3.9;;
51491;SDS011;37569;50.548;8.778;2023-04-05T00:14:46;6.8;;;4;;
51491;SDS011;37569;50.548;8.778;2023-04-05T00:19:46;5;;;3.8;;
51491;SDS011;37569;50.548;8.778;2023-04-05T00:24:46;5.7;;;3.7;;
51491;SDS011;37569;50.548;8.778;2023-04-05T00:29:47;5;;;3.7;;
51491;SDS011;37569;50.548;8.778;2023-04-05T00:34:47;5.3;;;3.8;;
51491;SDS011;37569;50.548;8.778;2023-04-05T00:39:47;5;;;3.3;;
51491;SDS011;37569;50.548;8.778;2023-04-05T00:44:47;5.8;;;3.7;;
51491;SDS011;37569;50.548;8.778;2023-04-05T00:49:47;6;;;3.9;;
51491;SDS011;37569;50.548;8.778;2023-04-05T00:54:47;4.9;;;3.7;;
51491;SDS011;37569;50.548;8.778;2023-04-05T00:59:47;5.8;;;3.5;;
51491;SDS011;37569;50.548;8.778;2023-04-05T01:04:48;8.1;;;4.1;;
51491;SDS011;37569;50.548;8.778;2023-04-05T01:09:51;4.8;;;3.5;;
51491;SDS011;37569;50.548;8.778;2023-04-05T01:14:48;5.6;;;3.6;;
51491;SDS011;37569;50.548;8.778;2023-04-05T01:19:48;5.7;;;3.8;;
51491;SDS011;37569;50.548;8.778;2023-04-05T01:24:50;5;;;3.9;;
51491;SDS011;37569;50.548;8.778;2023-04-05T01:29:49;5.4;;;3.8;;
51491;SDS011;37569;50.548;8.778;2023-04-05T01:34:49;7;;;4.2;;
51491;SDS011;37569;50.548;8.778;2023-04-05T01:39:48;7.8;;;4.2;;
51491;SDS011;37569;50.548;8.778;2023-04-05T01:44:48;7.1;;;4.1;;
51491;SDS011;37569;50.548;8.778;2023-04-05T01:49:48;5.4;;;4;;
51491;SDS011;37569;50.548;8.778;2023-04-05T01:54:48;5.5;;;4;;
51491;SDS011;37569;50.548;8.778;2023-04-05T01:59:48;7.8;;;4.1;;
51491;SDS011;37569;50.548;8.778;2023-04-05T02:04:48;6.8;;;3.8;;
51491;SDS011;37569;50.548;8.778;2023-04-05T02:09:48;6;;;3.9;;
51491;SDS011;37569;50.548;8.778;2023-04-05T02:14:48;5.8;;;3.7;;
51491;SDS011;37569;50.548;8.778;2023-04-05T02:19:48;5.8;;;4.1;;
51491;SDS011;37569;50.548;8.778;2023-04-05T02:24:48;5.9;;;3.9;;
51491;SDS011;37569;50.548;8.778;2023-04-05T02:29:48;5.1;;;3.9;;
51491;SDS011;37569;50.548;8.778;2023-04-05T02:34:48;5.4;;;4;;
51491;SDS011;37569;50.548;8.778;2023-04-05T02:39:48;6.3;;;3.8;;
51491;SDS011;37569;50.548;8.778;2023-04-05T02:44:48;6.8;;;4.4;;
51491;SDS011;37569;50.548;8.778;2023-04-05T02:49:48;5.7;;;4;;
51491;SDS011;37569;50.548;8.778;2023-04-05T02:54:48;5.3;;;4;;
51491;SDS011;37569;50.548;8.778;2023-04-05T02:59:48;5;;;4.2;;
51491;SDS011;37569;50.548;8.778;2023-04-05T03:04:50;5.1;;;4.1;;
51491;SDS011;37569;50.548;8.778;2023-04-05T03:09:48;6.4;;;4.2;;
51491;SDS011;37569;50.548;8.778;2023-04-05T03:14:48;7.1;;;4.2;;
51491;SDS011;37569;50.548;8.778;2023-04-05T03:19:48;4.6;;;4.1;;
51491;SDS011;37569;50.548;8.778;2023-04-05T03:24:48;6.9;;;5;;
51491;SDS011;37569;50.548;8.778;2023-04-05T03:29:48;6.3;;;4.5;;
51491;SDS011;37569;50.548;8.778;2023-04-05T03:34:48;7.4;;;4.9;;
51491;SDS011;37569;50.548;8.778;2023-04-05T03:39:48;6.5;;;4.5;;
51491;SDS011;37569;50.548;8.778;2023-04-05T03:44:49;6;;;4.7;;
51491;SDS011;37569;50.548;8.778;2023-04-05T03:49:48;7.2;;;4.8;;
51491;SDS011;37569;50.548;8.778;2023-04-05T03:54:48;7.5;;;5.1;;
51491;SDS011;37569;50.548;8.778;2023-04-05T03:59:48;6.7;;;4.8;;
51491;SDS011;37569;50.548;8.778;2023-04-05T04:04:48;7;;;5.1;;
51491;SDS011;37569;50.548;8.778;2023-04-05T04:09:47;7;;;4.9;;
51491;SDS011;37569;50.548;8.778;2023-04-05T04:14:47;7.4;;;4.8;;
51491;SDS011;37569;50.548;8.778;2023-04-05T04:19:47;6.5;;;4.9;;
51491;SDS011;37569;50.548;8.778;2023-04-05T04:24:47;6.6;;;5.2;;
51491;SDS011;37569;50.548;8.778;2023-04-05T04:29:47;7.4;;;5.8;;
51491;SDS011;37569;50.548;8.778;2023-04-05T04:34:47;8;;;5.9;;
51491;SDS011;37569;50.548;8.778;2023-04-05T04:39:47;8.1;;;5.6;;
51491;SDS011;37569;50.548;8.778;2023-04-05T04:44:47;7.4;;;5.5;;
51491;SDS011;37569;50.548;8.778;2023-04-05T04:49:47;7.8;;;5.7;;
51491;SDS011;37569;50.548;8.778;2023-04-05T04:54:47;7.3;;;5.3;;
51491;SDS011;37569;50.548;8.778;2023-04-05T04:59:47;9;;;5.9;;
51491;SDS011;37569;50.548;8.778;2023-04-05T05:04:47;7.8;;;5.7;;
51491;SDS011;37569;50.548;8.778;2023-04-05T05:09:47;7.6;;;5.3;;
51491;SDS011;37569;50.548;8.778;2023-04-05T05:14:47;6.8;;;5.2;;
51491;SDS011;37569;50.548;8.778;2023-04-05T05:19:47;5.6;;;4.9;;
51491;SDS011;37569;50.548;8.778;2023-04-05T05:24:47;9.3;;;6.8;;
51491;SDS011;37569;50.548;8.778;2023-04-05T05:29:47;9.6;;;6.9;;
51491;SDS011;37569;50.548;8.778;2023-04-05T05:34:47;8.5;;;5.8;;
51491;SDS011;37569;50.548;8.778;2023-04-05T05:39:47;7.7;;;6;;
51491;SDS011;37569;50.548;8.778;2023-04-05T05:44:47;8.5;;;5.4;;
51491;SDS011;37569;50.548;8.778;2023-04-05T05:49:48;6.6;;;4.4;;
51491;SDS011;37569;50.548;8.778;2023-04-05T05:54:48;5.2;;;3.9;;
51491;SDS011;37569;50.548;8.778;2023-04-05T05:59:48;6.3;;;4.3;;
51491;SDS011;37569;50.548;8.778;2023-04-05T06:04:49;8.8;;;4.5;;
51491;SDS011;37569;50.548;8.778;2023-04-05T06:09:49;4.6;;;3.8;;
51491;SDS011;37569;50.548;8.778;2023-04-05T06:14:50;4.7;;;4.2;;
51491;SDS011;37569;50.548;8.778;2023-04-05T06:19:50;5.2;;;4.6;;
51491;SDS011;37569;50.548;8.778;2023-04-05T06:24:51;5.2;;;4;;
51491;SDS011;37569;50.548;8.778;2023-04-05T06:29:51;6.2;;;3.9;;
51491;SDS011;37569;50.548;8.778;2023-04-05T06:34:52;5.4;;;4;;
51491;SDS011;37569;50.548;8.778;2023-04-05T06:39:52;7.8;;;3.8;;
51491;SDS011;37569;50.548;8.778;2023-04-05T06:44:53;10.5;;;4;;
51491;SDS011;37569;50.548;8.778;2023-04-05T06:49:53;9.2;;;3.9;;
51491;SDS011;37569;50.548;8.778;2023-04-05T06:54:54;6.7;;;3.8;;
51491;SDS011;37569;50.548;8.778;2023-04-05T06:59:54;7.3;;;3.7;;
51491;SDS011;37569;50.548;8.778;2023-04-05T07:04:55;6.9;;;3.7;;
51491;SDS011;37569;50.548;8.778;2023-04-05T07:09:55;7.1;;;3.8;;
51491;SDS011;37569;50.548;8.778;2023-04-05T07:14:56;5.3;;;3.4;;
51491;SDS011;37569;50.548;8.778;2023-04-05T07:19:56;5.4;;;3.5;;
51491;SDS011;37569;50.548;8.778;2023-04-05T07:24:57;6.3;;;3.4;;
51491;SDS011;37569;50.548;8.778;2023-04-05T07:29:57;4;;;3.2;;
51491;SDS011;37569;50.548;8.778;2023-04-05T07:34:57;4.8;;;4;;
51491;SDS011;37569;50.548;8.778;2023-04-05T07:39:58;5.3;;;3.8;;
51491;SDS011;37569;50.548;8.778;2023-04-05T07:44:58;4.5;;;3.2;;
51491;SDS011;37569;50.548;8.778;2023-04-05T07:49:58;5.2;;;3.4;;
51491;SDS011;37569;50.548;8.778;2023-04-05T07:54:59;3.6;;;3.1;;
51491;SDS011;37569;50.548;8.778;2023-04-05T07:59:59;3.7;;;3.3;;
51491;SDS011;37569;50.548;8.778;2023-04-05T08:04:59;4.6;;;3.2;;
51491;SDS011;37569;50.548;8.778;2023-04-05T08:10:00;4.3;;;3.4;;
51491;SDS011;37569;50.548;8.778;2023-04-05T08:15:00;4.4;;;3.5;;
51491;SDS011;37569;50.548;8.778;2023-04-05T08:20:00;4.7;;;3.3;;
51491;SDS011;37569;50.548;8.778;2023-04-05T08:25:01;5.8;;;4;;
51491;SDS011;37569;50.548;8.778;2023-04-05T08:30:01;4.8;;;3.3;;
51491;SDS011;37569;50.548;8.778;2023-04-05T08:35:01;4.7;;;3.8;;
51491;SDS011;37569;50.548;8.778;2023-04-05T08:40:02;5.5;;;4.1;;
51491;SDS011;37569;50.548;8.778;2023-04-05T08:45:02;5.7;;;3.7;;
51491;SDS011;37569;50.548;8.778;2023-04-05T08:50:02;4.3;;;3.6;;
51491;SDS011;37569;50.548;8.778;2023-04-05T08:55:03;5.3;;;3.8;;
51491;SDS011;37569;50.548;8.778;2023-04-05T09:00:03;5.4;;;3.5;;
51491;SDS011;37569;50.548;8.778;2023-04-05T09:05:03;5.4;;;3.6;;
51491;SDS011;37569;50.548;8.778;2023-04-05T09:10:04;4.7;;;3.8;;
51491;SDS011;37569;50.548;8.778;2023-04-05T09:15:04;4.4;;;3.5;;
51491;SDS011;37569;50.548;8.778;2023-04-05T09:20:04;4.8;;;3.4;;
51491;SDS011;37569;50.548;8.778;2023-04-05T09:25:05;5.8;;;3.6;;
51491;SDS011;37569;50.548;8.778;2023-04-05T09:30:07;5.8;;;3.7;;
51491;SDS011;37569;50.548;8.778;2023-04-05T09:35:05;4.7;;;3.3;;
51491;SDS011;37569;50.548;8.778;2023-04-05T09:40:06;4.1;;;3.5;;
51491;SDS011;37569;50.548;8.778;2023-04-05T09:45:06;6;;;4;;
51491;SDS011;37569;50.548;8.778;2023-04-05T09:50:16;4.6;;;3.6;;
51491;SDS011;37569;50.548;8.778;2023-04-05T09:55:07;3.8;;;3.4;;
51491;SDS011;37569;50.548;8.778;2023-04-05T10:00:15;4.5;;;3.7;;
51491;SDS011;37569;50.548;8.778;2023-04-05T10:05:08;5.4;;;3.7;;
51491;SDS011;37569;50.548;8.778;2023-04-05T10:10:08;4.3;;;3.5;;
51491;SDS011;37569;50.548;8.778;2023-04-05T10:15:08;4.5;;;3.4;;
51491;SDS011;37569;50.548;8.778;2023-04-05T10:20:09;5.8;;;3.6;;
51491;SDS011;37569;50.548;8.778;2023-04-05T10:25:11;4;;;3.1;;
51491;SDS011;37569;50.548;8.778;2023-04-05T10:30:09;4.3;;;3.8;;
51491;SDS011;37569;50.548;8.778;2023-04-05T10:35:14;4.7;;;3.3;;
51491;SDS011;37569;50.548;8.778;2023-04-05T10:40:10;4.6;;;3.1;;
51491;SDS011;37569;50.548;8.778;2023-04-05T10:45:11;3.8;;;3.4;;
51491;SDS011;37569;50.548;8.778;2023-04-05T10:50:11;4.8;;;3.4;;
51491;SDS011;37569;50.548;8.778;2023-04-05T10:55:11;4;;;3.1;;
51491;SDS011;37569;50.548;8.778;2023-04-05T11:00:12;6;;;3.7;;
51491;SDS011;37569;50.548;8.778;2023-04-05T11:05:28;3.7;;;3;;
51491;SDS011;37569;50.548;8.778;2023-04-05T11:10:14;4;;;3.1;;
51491;SDS011;37569;50.548;8.778;2023-04-05T11:15:27;4.9;;;3.1;;
51491;SDS011;37569;50.548;8.778;2023-04-05T11:20:13;3.7;;;3.1;;
51491;SDS011;37569;50.548;8.778;2023-04-05T11:25:20;7.9;;;4.7;;
51491;SDS011;37569;50.548;8.778;2023-04-05T11:30:22;4;;;3.2;;
51491;SDS011;37569;50.548;8.778;2023-04-05T11:35:15;3.4;;;3;;
51491;SDS011;37569;50.548;8.778;2023-04-05T11:40:30;4.4;;;3.1;;
51491;SDS011;37569;50.548;8.778;2023-04-05T11:45:15;3.8;;;2.9;;
51491;SDS011;37569;50.548;8.778;2023-04-05T11:50:15;3.5;;;3;;
51491;SDS011;37569;50.548;8.778;2023-04-05T11:55:16;3.7;;;2.8;;
51491;SDS011;37569;50.548;8.778;2023-04-05T12:00:16;3.1;;;2.5;;
51491;SDS011;37569;50.548;8.778;2023-04-05T12:05:16;4;;;3.1;;
51491;SDS011;37569;50.548;8.778;2023-04-05T12:10:17;5;;;3;;
51491;SDS011;37569;50.548;8.778;2023-04-05T12:15:17;4.5;;;3.4;;
51491;SDS011;37569;50.548;8.778;2023-04-05T12:20:18;3.2;;;2.9;;
51491;SDS011;37569;50.548;8.778;2023-04-05T12:25:18;4;;;2.6;;
51491;SDS011;37569;50.548;8.778;2023-04-05T12:30:19;3.5;;;2.7;;
51491;SDS011;37569;50.548;8.778;2023-04-05T12:35:20;4.8;;;3.3;;
51491;SDS011;37569;50.548;8.778;2023-04-05T12:40:19;3.7;;;2.7;;
51491;SDS011;37569;50.548;8.778;2023-04-05T12:45:21;4.5;;;3;;
51491;SDS011;37569;50.548;8.778;2023-04-05T12:50:24;3.2;;;2.9;;
51491;SDS011;37569;50.548;8.778;2023-04-05T12:55:21;3.8;;;2.7;;
51491;SDS011;37569;50.548;8.778;2023-04-05T13:00:21;3.5;;;2.8;;
51491;SDS011;37569;50.548;8.778;2023-04-05T13:05:22;3.5;;;2.8;;
51491;SDS011;37569;50.548;8.778;2023-04-05T13:10:22;4.7;;;2.8;;
51491;SDS011;37569;50.548;8.778;2023-04-05T13:15:22;3.9;;;2.8;;
51491;SDS011;37569;50.548;8.778;2023-04-05T13:20:23;3.6;;;2.8;;
51491;SDS011;37569;50.548;8.778;2023-04-05T13:25:23;4.1;;;2.7;;
51491;SDS011;37569;50.548;8.778;2023-04-05T13:30:24;4;;;2.6;;
51491;SDS011;37569;50.548;8.778;2023-04-05T13:35:24;3.3;;;2.7;;
51491;SDS011;37569;50.548;8.778;2023-04-05T13:40:24;3.9;;;2.6;;
51491;SDS011;37569;50.548;8.778;2023-04-05T13:45:25;4.9;;;2.8;;
51491;SDS011;37569;50.548;8.778;2023-04-05T13:50:25;4;;;3.2;;
51491;SDS011;37569;50.548;8.778;2023-04-05T13:55:26;6.6;;;2.9;;
51491;SDS011;37569;50.548;8.778;2023-04-05T14:00:26;3.7;;;2.9;;
51491;SDS011;37569;50.548;8.778;2023-04-05T14:05:27;2.9;;;2.6;;
51491;SDS011;37569;50.548;8.778;2023-04-05T14:10:27;3.2;;;2.9;;
51491;SDS011;37569;50.548;8.778;2023-04-05T14:15:27;3;;;2.7;;
51491;SDS011;37569;50.548;8.778;2023-04-05T14:20:28;3.9;;;3;;
51491;SDS011;37569;50.548;8.778;2023-04-05T14:25:28;3.6;;;3;;
51491;SDS011;37569;50.548;8.778;2023-04-05T14:30:29;4.3;;;2.9;;
51491;SDS011;37569;50.548;8.778;2023-04-05T14:35:29;3.7;;;2.7;;
51491;SDS011;37569;50.548;8.778;2023-04-05T14:40:30;3.3;;;2.8;;
51491;SDS011;37569;50.548;8.778;2023-04-05T14:45:30;4.1;;;2.9;;
51491;SDS011;37569;50.548;8.778;2023-04-05T14:50:30;4;;;3;;
51491;SDS011;37569;50.548;8.778;2023-04-05T14:55:31;4.5;;;2.8;;
51491;SDS011;37569;50.548;8.778;2023-04-05T15:00:32;3.9;;;3.1;;
51491;SDS011;37569;50.548;8.778;2023-04-05T15:05:32;5.9;;;4.7;;
51491;SDS011;37569;50.548;8.778;2023-04-05T15:10:32;5.4;;;3.2;;
51491;SDS011;37569;50.548;8.778;2023-04-05T15:15:32;4.1;;;3;;
51491;SDS011;37569;50.548;8.778;2023-04-05T15:20:33;5.7;;;3.8;;
51491;SDS011;37569;50.548;8.778;2023-04-05T15:25:33;4.3;;;3.2;;
51491;SDS011;37569;50.548;8.778;2023-04-05T15:30:34;5;;;3;;
51491;SDS011;37569;50.548;8.778;2023-04-05T15:35:34;3.9;;;3;;
51491;SDS011;37569;50.548;8.778;2023-04-05T15:40:35;4.1;;;3.1;;
51491;SDS011;37569;50.548;8.778;2023-04-05T15:45:35;4.2;;;3;;
51491;SDS011;37569;50.548;8.778;2023-04-05T15:50:35;5.1;;;2.9;;
51491;SDS011;37569;50.548;8.778;2023-04-05T15:55:36;4.3;;;3.1;;
51491;SDS011;37569;50.548;8.778;2023-04-05T16:00:36;3.9;;;3.1;;
51491;SDS011;37569;50.548;8.778;2023-04-05T16:05:36;4.9;;;3.5;;
51491;SDS011;37569;50.548;8.778;2023-04-05T16:10:37;4.1;;;3.3;;
51491;SDS011;37569;50.548;8.778;2023-04-05T16:15:37;4;;;2.9;;
51491;SDS011;37569;50.548;8.778;2023-04-05T16:20:38;4;;;3.1;;
51491;SDS011;37569;50.548;8.778;2023-04-05T16:25:38;4.5;;;3;;
51491;SDS011;37569;50.548;8.778;2023-04-05T16:30:39;3.4;;;2.7;;
51491;SDS011;37569;50.548;8.778;2023-04-05T16:35:39;4.5;;;2.8;;
51491;SDS011;37569;50.548;8.778;2023-04-05T16:40:40;4.8;;;3.1;;
51491;SDS011;37569;50.548;8.778;2023-04-05T16:45:40;3.6;;;2.8;;
51491;SDS011;37569;50.548;8.778;2023-04-05T16:50:40;4.1;;;3.1;;
51491;SDS011;37569;50.548;8.778;2023-04-05T16:55:41;4.9;;;3.3;;
51491;SDS011;37569;50.548;8.778;2023-04-05T17:00:41;4.8;;;3.5;;
51491;SDS011;37569;50.548;8.778;2023-04-05T17:05:42;4.3;;;2.8;;
51491;SDS011;37569;50.548;8.778;2023-04-05T17:10:42;4.5;;;2.8;;
51491;SDS011;37569;50.548;8.778;2023-04-05T17:15:42;3.2;;;2.5;;
51491;SDS011;37569;50.548;8.778;2023-04-05T17:20:43;18.2;;;10.4;;
51491;SDS011;37569;50.548;8.778;2023-04-05T17:25:43;4.7;;;3.2;;
51491;SDS011;37569;50.548;8.778;2023-04-05T17:30:43;4.1;;;2.6;;
51491;SDS011;37569;50.548;8.778;2023-04-05T17:35:44;3.2;;;2.5;;
51491;SDS011;37569;50.548;8.778;2023-04-05T17:40:44;2.6;;;2.4;;
51491;SDS011;37569;50.548;8.778;2023-04-05T17:45:44;2.7;;;2.4;;
51491;SDS011;37569;50.548;8.778;2023-04-05T17:50:45;2.9;;;2.4;;
51491;SDS011;37569;50.548;8.778;2023-04-05T17:55:45;3.7;;;2.6;;
51491;SDS011;37569;50.548;8.778;2023-04-05T18:00:45;3.7;;;2.5;;
51491;SDS011;37569;50.548;8.778;2023-04-05T18:05:47;3.7;;;2.4;;
51491;SDS011;37569;50.548;8.778;2023-04-05T18:10:46;5.1;;;2.4;;
51491;SDS011;37569;50.548;8.778;2023-04-05T18:15:50;4.1;;;2.4;;
51491;SDS011;37569;50.548;8.778;2023-04-05T18:20:47;2.8;;;2.3;;
51491;SDS011;37569;50.548;8.778;2023-04-05T18:25:47;4.1;;;2.8;;
51491;SDS011;37569;50.548;8.778;2023-04-05T18:30:47;3;;;2.5;;
51491;SDS011;37569;50.548;8.778;2023-04-05T18:35:48;4.7;;;3.6;;
51491;SDS011;37569;50.548;8.778;2023-04-05T18:40:48;4;;;2.6;;
51491;SDS011;37569;50.548;8.778;2023-04-05T18:45:48;3.9;;;3;;
51491;SDS011;37569;50.548;8.778;2023-04-05T18:50:49;4.5;;;3.3;;
51491;SDS011;37569;50.548;8.778;2023-04-05T18:55:49;4;;;3.1;;
51491;SDS011;37569;50.548;8.778;2023-04-05T19:00:49;5.3;;;4.1;;
51491;SDS011;37569;50.548;8.778;2023-04-05T19:05:49;10;;;6.7;;
51491;SDS011;37569;50.548;8.778;2023-04-05T19:10:49;7.4;;;5.4;;
51491;SDS011;37569;50.548;8.778;2023-04-05T19:15:50;10.4;;;7.4;;
51491;SDS011;37569;50.548;8.778;2023-04-05T19:20:51;6.5;;;5.2;;
51491;SDS011;37569;50.548;8.778;2023-04-05T19:25:50;6.7;;;5;;
51491;SDS011;37569;50.548;8.778;2023-04-05T19:30:50;7.6;;;5.5;;
51491;SDS011;37569;50.548;8.778;2023-04-05T19:35:51;9.2;;;6.3;;
51491;SDS011;37569;50.548;8.778;2023-04-05T19:40:51;11.6;;;7.6;;
51491;SDS011;37569;50.548;8.778;2023-04-05T19:45:53;14.2;;;9.5;;
51491;SDS011;37569;50.548;8.778;2023-04-05T19:50:51;9.4;;;7.3;;
51491;SDS011;37569;50.548;8.778;2023-04-05T19:55:52;10.3;;;6.8;;
51491;SDS011;37569;50.548;8.778;2023-04-05T20:00:52;9.5;;;6.9;;
51491;SDS011;37569;50.548;8.778;2023-04-05T20:05:55;9.4;;;6.4;;
51491;SDS011;37569;50.548;8.778;2023-04-05T20:10:52;7.9;;;5.4;;
51491;SDS011;37569;50.548;8.778;2023-04-05T20:15:52;7.7;;;5.9;;
51491;SDS011;37569;50.548;8.778;2023-04-05T20:20:53;10.3;;;6.8;;
51491;SDS011;37569;50.548;8.778;2023-04-05T20:25:53;8.6;;;5.7;;
51491;SDS011;37569;50.548;8.778;2023-04-05T20:30:53;8.5;;;6.1;;
51491;SDS011;37569;50.548;8.778;2023-04-05T20:35:53;7.9;;;5.5;;
51491;SDS011;37569;50.548;8.778;2023-04-05T20:40:53;6.7;;;5.5;;
51491;SDS011;37569;50.548;8.778;2023-04-05T20:45:54;7.9;;;5.1;;
51491;SDS011;37569;50.548;8.778;2023-04-05T20:50:54;10;;;5.2;;
51491;SDS011;37569;50.548;8.778;2023-04-05T20:55:54;7.6;;;5.1;;
51491;SDS011;37569;50.548;8.778;2023-04-05T21:00:54;8.1;;;5.1;;
51491;SDS011;37569;50.548;8.778;2023-04-05T21:05:54;8.5;;;5;;
51491;SDS011;37569;50.548;8.778;2023-04-05T21:10:55;7.7;;;5;;
51491;SDS011;37569;50.548;8.778;2023-04-05T21:15:55;6.9;;;4.4;;
51491;SDS011;37569;50.548;8.778;2023-04-05T21:20:55;6.2;;;4;;
51491;SDS011;37569;50.548;8.778;2023-04-05T21:25:55;5.4;;;3.8;;
51491;SDS011;37569;50.548;8.778;2023-04-05T21:30:55;5.1;;;3.6;;
51491;SDS011;37569;50.548;8.778;2023-04-05T21:35:55;7.9;;;4.5;;
51491;SDS011;37569;50.548;8.778;2023-04-05T21:40:55;7.3;;;4.6;;
51491;SDS011;37569;50.548;8.778;2023-04-05T21:45:56;8.7;;;5.2;;
51491;SDS011;37569;50.548;8.778;2023-04-05T21:50:56;7.5;;;5.2;;
51491;SDS011;37569;50.548;8.778;2023-04-05T21:55:56;7.6;;;5.5;;
51491;SDS011;37569;50.548;8.778;2023-04-05T22:00:56;9.4;;;5.5;;
51491;SDS011;37569;50.548;8.778;2023-04-05T22:05:56;8.5;;;5.9;;
51491;SDS011;37569;50.548;8.778;2023-04-05T22:10:56;7.4;;;4.9;;
51491;SDS011;37569;50.548;8.778;2023-04-05T22:15:56;8.4;;;5.6;;
51491;SDS011;37569;50.548;8.778;2023-04-05T22:20:57;8.4;;;5.7;;
51491;SDS011;37569;50.548;8.778;2023-04-05T22:25:57;8.7;;;5.6;;
51491;SDS011;37569;50.548;8.778;2023-04-05T22:30:57;9.9;;;6.8;;
51491;SDS011;37569;50.548;8.778;2023-04-05T22:35:57;9.3;;;7;;
51491;SDS011;37569;50.548;8.778;2023-04-05T22:40:57;9.5;;;6.7;;
51491;SDS011;37569;50.548;8.778;2023-04-05T22:45:57;8.8;;;6.2;;
51491;SDS011;37569;50.548;8.778;2023-04-05T22:50:57;8.4;;;6.4;;
51491;SDS011;37569;50.548;8.778;2023-04-05T22:55:57;12;;;6.4;;
51491;SDS011;37569;50.548;8.778;2023-04-05T23:00:58;10;;;6.5;;
51491;SDS011;37569;50.548;8.778;2023-04-05T23:05:58;8.6;;;6.5;;
51491;SDS011;37569;50.548;8.778;2023-04-05T23:10:58;9.8;;;6.3;;
51491;SDS011;37569;50.548;8.778;2023-04-05T23:15:58;10.1;;;7.1;;
51491;SDS011;37569;50.548;8.778;2023-04-05T23:20:58;22.5;;;10.4;;
51491;SDS011;37569;50.548;8.778;2023-04-05T23:25:58;9.8;;;6.1;;
51491;SDS011;37569;50.548;8.778;2023-04-05T23:30:58;13.5;;;8.2;;
51491;SDS011;37569;50.548;8.778;2023-04-05T23:35:58;11;;;6.7;;
51491;SDS011;37569;50.548;8.778;2023-04-05T23:40:59;9.1;;;6.7;;
51491;SDS011;37569;50.548;8.778;2023-04-05T23:45:59;9.3;;;6.2;;
51491;SDS011;37569;50.548;8.778;2023-04-05T23:50:59;9.7;;;6.4;;
51491;SDS011;37569;50.548;8.778;2023-04-05T23:55:59;9.9;;;6.7;;
